Chem Star — V7FI3 — position and weather

sailwx.info

Track history (hours):
 
Tides and Currents Weather Stations Pressure Air Temp Water Temp Dewpoint Dewpoint Depression Visibility Wind Speed Wind Dir Waves Ship Positions

Chem Star

Last reported at 2017-Nov-17 04:47 UTC. Time now 2017-Nov-18 11:45 UTC.
Position N 30°24' E 032°22'.

Length 117 m; draft 6.2 m.

Type: Tanker. MMSI: 538001945.

Date/timePositionNaut miles runAvg speedWind from/ knotsBaromVisibWave heightAir tempDewpointWater temp
2017-Nov-17 04:47N 30°24' E 032°22'3 9.3
2017-Nov-17 04:27N 30°27' E 032°21'5 9.2
2017-Nov-17 03:51N 30°32' E 032°19'27 8.2
2017-Nov-17 00:37N 30°58' E 032°19'3 8.8
2017-Nov-17 00:16N 31°02' E 032°19'21 8.4
2017-Nov-16 21:43N 31°23' E 032°23'2 8.6
2017-Nov-16 21:28N 31°24' E 032°22'2 1.6
2017-Nov-16 20:13N 31°24' E 032°19'0 0.0
2017-Nov-16 19:55N 31°24' E 032°19'0 0.1
2017-Nov-16 19:25N 31°24' E 032°19'0 0.0
2017-Nov-16 18:52N 31°24' E 032°19'3 1.7
2017-Nov-16 17:12N 31°22' E 032°21'1 2.0
2017-Nov-16 16:56N 31°22' E 032°22'1 2.4
2017-Nov-16 16:30N 31°23' E 032°21'14 9.9
2017-Nov-16 15:03N 31°34' E 032°10'010.3
2017-Nov-16 15:00N 31°34' E 032°10'810.3
2017-Nov-16 14:14N 31°40' E 032°03'910.3
2017-Nov-16 13:21N 31°46' E 031°55'45111.2
2017-Nov-14 20:56N 37°27' E 025°56'410.4
2017-Nov-14 20:30N 37°29' E 025°51'4 8.9
2017-Nov-14 20:00N 37°33' E 025°49'510.1
2017-Nov-14 19:28N 37°39' E 025°48'510.4
2017-Nov-14 19:00N 37°43' E 025°48'  
Track history (hours):
 
Tides and Currents Weather Stations Pressure Air Temp Water Temp Dewpoint Dewpoint Depression Visibility Wind Speed Wind Dir Waves Ship Positions

Chem Star

Last reported at 2017-Nov-17 04:47 UTC. Time now 2017-Nov-18 11:45 UTC.
Position N 30°24' E 032°22'.

Length 117 m; draft 6.2 m.

Type: Tanker. MMSI: 538001945.

Date/timePositionNaut miles runAvg speedWind from/ knotsBaromVisibWave heightAir tempDewpointWater temp
2017-Nov-17 04:47N 30°24' E 032°22'3 9.3
2017-Nov-17 04:27N 30°27' E 032°21'5 9.2
2017-Nov-17 03:51N 30°32' E 032°19'27 8.2
2017-Nov-17 00:37N 30°58' E 032°19'3 8.8
2017-Nov-17 00:16N 31°02' E 032°19'21 8.4
2017-Nov-16 21:43N 31°23' E 032°23'2 8.6
2017-Nov-16 21:28N 31°24' E 032°22'2 1.6
2017-Nov-16 20:13N 31°24' E 032°19'0 0.0
2017-Nov-16 19:55N 31°24' E 032°19'0 0.1
2017-Nov-16 19:25N 31°24' E 032°19'0 0.0
2017-Nov-16 18:52N 31°24' E 032°19'3 1.7
2017-Nov-16 17:12N 31°22' E 032°21'1 2.0
2017-Nov-16 16:56N 31°22' E 032°22'1 2.4
2017-Nov-16 16:30N 31°23' E 032°21'14 9.9
2017-Nov-16 15:03N 31°34' E 032°10'010.3
2017-Nov-16 15:00N 31°34' E 032°10'810.3
2017-Nov-16 14:14N 31°40' E 032°03'910.3
2017-Nov-16 13:21N 31°46' E 031°55'45111.2
2017-Nov-14 20:56N 37°27' E 025°56'410.4
2017-Nov-14 20:30N 37°29' E 025°51'4 8.9
2017-Nov-14 20:00N 37°33' E 025°49'510.1
2017-Nov-14 19:28N 37°39' E 025°48'510.4
2017-Nov-14 19:00N 37°43' E 025°48'  

Dump ship's entire track history